sensor_id;sensor_type;location;lat;lon;timestamp;P1;durP1;ratioP1;P2;durP2;ratioP2
66727;SDS011;53641;44.274;19.890;2022-08-19T00:00:15;9.68;;;4.30;;
66727;SDS011;53641;44.274;19.890;2022-08-19T00:02:42;9.02;;;3.63;;
66727;SDS011;53641;44.274;19.890;2022-08-19T00:05:09;6.72;;;3.10;;
66727;SDS011;53641;44.274;19.890;2022-08-19T00:07:35;4.20;;;3.05;;
66727;SDS011;53641;44.274;19.890;2022-08-19T00:10:01;7.90;;;3.28;;
66727;SDS011;53641;44.274;19.890;2022-08-19T00:12:28;5.28;;;3.60;;
66727;SDS011;53641;44.274;19.890;2022-08-19T00:14:54;6.13;;;3.28;;
66727;SDS011;53641;44.274;19.890;2022-08-19T00:17:20;9.18;;;3.72;;
66727;SDS011;53641;44.274;19.890;2022-08-19T00:19:46;7.13;;;3.75;;
66727;SDS011;53641;44.274;19.890;2022-08-19T00:22:12;6.93;;;4.10;;
66727;SDS011;53641;44.274;19.890;2022-08-19T00:24:38;5.40;;;3.35;;
66727;SDS011;53641;44.274;19.890;2022-08-19T00:27:04;9.02;;;4.28;;
66727;SDS011;53641;44.274;19.890;2022-08-19T00:29:30;5.53;;;3.45;;
66727;SDS011;53641;44.274;19.890;2022-08-19T00:31:58;7.78;;;4.10;;
66727;SDS011;53641;44.274;19.890;2022-08-19T00:34:27;9.15;;;3.70;;
66727;SDS011;53641;44.274;19.890;2022-08-19T00:36:54;7.68;;;3.63;;
66727;SDS011;53641;44.274;19.890;2022-08-19T00:39:20;6.82;;;3.80;;
66727;SDS011;53641;44.274;19.890;2022-08-19T00:41:46;7.10;;;3.97;;
66727;SDS011;53641;44.274;19.890;2022-08-19T00:44:22;8.70;;;3.70;;
66727;SDS011;53641;44.274;19.890;2022-08-19T00:46:50;7.65;;;3.40;;
66727;SDS011;53641;44.274;19.890;2022-08-19T00:49:19;6.78;;;3.67;;
66727;SDS011;53641;44.274;19.890;2022-08-19T00:51:50;7.47;;;4.18;;
66727;SDS011;53641;44.274;19.890;2022-08-19T00:54:20;9.13;;;5.30;;
66727;SDS011;53641;44.274;19.890;2022-08-19T00:56:46;7.35;;;4.00;;
66727;SDS011;53641;44.274;19.890;2022-08-19T00:59:13;8.18;;;3.55;;
66727;SDS011;53641;44.274;19.890;2022-08-19T01:01:40;6.25;;;3.40;;
66727;SDS011;53641;44.274;19.890;2022-08-19T01:04:07;8.75;;;4.00;;
66727;SDS011;53641;44.274;19.890;2022-08-19T01:06:33;7.75;;;4.65;;
66727;SDS011;53641;44.274;19.890;2022-08-19T01:09:03;9.13;;;4.88;;
66727;SDS011;53641;44.274;19.890;2022-08-19T01:11:30;8.20;;;3.80;;
66727;SDS011;53641;44.274;19.890;2022-08-19T01:13:58;5.70;;;3.50;;
66727;SDS011;53641;44.274;19.890;2022-08-19T01:16:25;6.80;;;3.40;;
66727;SDS011;53641;44.274;19.890;2022-08-19T01:18:54;7.87;;;3.27;;
66727;SDS011;53641;44.274;19.890;2022-08-19T01:21:32;8.18;;;3.60;;
66727;SDS011;53641;44.274;19.890;2022-08-19T01:24:03;9.10;;;3.47;;
66727;SDS011;53641;44.274;19.890;2022-08-19T01:26:29;10.90;;;4.35;;
66727;SDS011;53641;44.274;19.890;2022-08-19T01:28:56;10.57;;;5.75;;
66727;SDS011;53641;44.274;19.890;2022-08-19T01:31:26;9.98;;;6.22;;
66727;SDS011;53641;44.274;19.890;2022-08-19T01:33:57;14.70;;;6.40;;
66727;SDS011;53641;44.274;19.890;2022-08-19T01:36:28;11.10;;;4.72;;
66727;SDS011;53641;44.274;19.890;2022-08-19T01:38:56;14.60;;;4.60;;
66727;SDS011;53641;44.274;19.890;2022-08-19T01:41:23;6.90;;;3.45;;
66727;SDS011;53641;44.274;19.890;2022-08-19T01:43:49;7.68;;;3.72;;
66727;SDS011;53641;44.274;19.890;2022-08-19T01:46:17;8.25;;;3.50;;
66727;SDS011;53641;44.274;19.890;2022-08-19T01:48:43;7.03;;;3.53;;
66727;SDS011;53641;44.274;19.890;2022-08-19T01:51:10;10.50;;;3.83;;
66727;SDS011;53641;44.274;19.890;2022-08-19T01:53:37;13.93;;;4.50;;
66727;SDS011;53641;44.274;19.890;2022-08-19T01:56:03;11.35;;;4.15;;
66727;SDS011;53641;44.274;19.890;2022-08-19T01:58:32;10.65;;;3.90;;
66727;SDS011;53641;44.274;19.890;2022-08-19T02:01:02;7.45;;;3.78;;
66727;SDS011;53641;44.274;19.890;2022-08-19T02:03:28;11.18;;;3.75;;
66727;SDS011;53641;44.274;19.890;2022-08-19T02:05:55;11.85;;;4.05;;
66727;SDS011;53641;44.274;19.890;2022-08-19T02:08:24;5.53;;;3.20;;
66727;SDS011;53641;44.274;19.890;2022-08-19T02:10:50;8.88;;;3.90;;
66727;SDS011;53641;44.274;19.890;2022-08-19T02:13:16;8.25;;;3.90;;
66727;SDS011;53641;44.274;19.890;2022-08-19T02:15:42;8.90;;;3.70;;
66727;SDS011;53641;44.274;19.890;2022-08-19T02:18:08;12.77;;;3.92;;
66727;SDS011;53641;44.274;19.890;2022-08-19T02:20:35;13.43;;;3.72;;
66727;SDS011;53641;44.274;19.890;2022-08-19T02:23:01;6.82;;;3.95;;
66727;SDS011;53641;44.274;19.890;2022-08-19T02:25:27;6.55;;;3.70;;
66727;SDS011;53641;44.274;19.890;2022-08-19T02:27:53;8.27;;;3.80;;
66727;SDS011;53641;44.274;19.890;2022-08-19T02:30:19;6.40;;;3.50;;
66727;SDS011;53641;44.274;19.890;2022-08-19T02:32:45;6.75;;;3.17;;
66727;SDS011;53641;44.274;19.890;2022-08-19T02:35:12;8.25;;;3.42;;
66727;SDS011;53641;44.274;19.890;2022-08-19T02:37:38;7.45;;;3.60;;
66727;SDS011;53641;44.274;19.890;2022-08-19T02:40:24;8.68;;;4.05;;
66727;SDS011;53641;44.274;19.890;2022-08-19T02:42:49;8.90;;;3.95;;
66727;SDS011;53641;44.274;19.890;2022-08-19T02:45:16;8.68;;;4.05;;
66727;SDS011;53641;44.274;19.890;2022-08-19T02:47:42;10.82;;;4.30;;
66727;SDS011;53641;44.274;19.890;2022-08-19T02:50:08;9.57;;;3.55;;
66727;SDS011;53641;44.274;19.890;2022-08-19T02:52:34;7.50;;;4.18;;
66727;SDS011;53641;44.274;19.890;2022-08-19T02:55:00;8.65;;;4.05;;
66727;SDS011;53641;44.274;19.890;2022-08-19T02:57:26;9.23;;;4.07;;
66727;SDS011;53641;44.274;19.890;2022-08-19T02:59:52;9.68;;;4.38;;
66727;SDS011;53641;44.274;19.890;2022-08-19T03:02:18;9.43;;;4.25;;
66727;SDS011;53641;44.274;19.890;2022-08-19T03:04:44;8.13;;;3.95;;
66727;SDS011;53641;44.274;19.890;2022-08-19T03:07:13;7.82;;;4.65;;
66727;SDS011;53641;44.274;19.890;2022-08-19T03:09:39;6.68;;;3.70;;
66727;SDS011;53641;44.274;19.890;2022-08-19T03:12:07;7.82;;;4.07;;
66727;SDS011;53641;44.274;19.890;2022-08-19T03:14:33;13.30;;;4.22;;
66727;SDS011;53641;44.274;19.890;2022-08-19T03:16:59;7.05;;;3.75;;
66727;SDS011;53641;44.274;19.890;2022-08-19T03:19:26;6.32;;;3.63;;
66727;SDS011;53641;44.274;19.890;2022-08-19T03:21:52;7.45;;;4.15;;
66727;SDS011;53641;44.274;19.890;2022-08-19T03:24:19;9.40;;;3.78;;
66727;SDS011;53641;44.274;19.890;2022-08-19T03:26:49;6.43;;;3.72;;
66727;SDS011;53641;44.274;19.890;2022-08-19T03:29:18;7.50;;;3.50;;
66727;SDS011;53641;44.274;19.890;2022-08-19T03:31:44;7.80;;;3.45;;
66727;SDS011;53641;44.274;19.890;2022-08-19T03:34:12;7.25;;;3.65;;
66727;SDS011;53641;44.274;19.890;2022-08-19T03:36:39;11.93;;;3.70;;
66727;SDS011;53641;44.274;19.890;2022-08-19T03:39:05;10.70;;;4.10;;
66727;SDS011;53641;44.274;19.890;2022-08-19T03:41:38;9.27;;;4.43;;
66727;SDS011;53641;44.274;19.890;2022-08-19T03:44:05;7.75;;;4.00;;
66727;SDS011;53641;44.274;19.890;2022-08-19T03:46:33;9.68;;;3.72;;
66727;SDS011;53641;44.274;19.890;2022-08-19T03:49:02;9.88;;;4.45;;
66727;SDS011;53641;44.274;19.890;2022-08-19T03:51:33;6.88;;;3.90;;
66727;SDS011;53641;44.274;19.890;2022-08-19T03:54:01;7.97;;;4.20;;
66727;SDS011;53641;44.274;19.890;2022-08-19T03:56:28;7.63;;;3.65;;
66727;SDS011;53641;44.274;19.890;2022-08-19T03:58:54;8.13;;;3.90;;
66727;SDS011;53641;44.274;19.890;2022-08-19T04:01:22;8.68;;;3.60;;
66727;SDS011;53641;44.274;19.890;2022-08-19T04:03:51;5.03;;;3.77;;
66727;SDS011;53641;44.274;19.890;2022-08-19T04:06:22;7.32;;;3.40;;
66727;SDS011;53641;44.274;19.890;2022-08-19T04:08:51;8.82;;;4.30;;
66727;SDS011;53641;44.274;19.890;2022-08-19T04:11:20;8.38;;;3.92;;
66727;SDS011;53641;44.274;19.890;2022-08-19T04:13:51;8.55;;;4.00;;
66727;SDS011;53641;44.274;19.890;2022-08-19T04:16:18;9.80;;;4.22;;
66727;SDS011;53641;44.274;19.890;2022-08-19T04:18:46;7.40;;;4.18;;
66727;SDS011;53641;44.274;19.890;2022-08-19T04:21:17;11.98;;;3.95;;
66727;SDS011;53641;44.274;19.890;2022-08-19T04:23:44;8.43;;;3.65;;
66727;SDS011;53641;44.274;19.890;2022-08-19T04:26:14;7.43;;;3.70;;
66727;SDS011;53641;44.274;19.890;2022-08-19T04:28:41;10.83;;;3.90;;
66727;SDS011;53641;44.274;19.890;2022-08-19T04:31:11;10.45;;;4.03;;
66727;SDS011;53641;44.274;19.890;2022-08-19T04:33:39;9.27;;;4.10;;
66727;SDS011;53641;44.274;19.890;2022-08-19T04:36:05;7.97;;;3.53;;
66727;SDS011;53641;44.274;19.890;2022-08-19T04:38:31;9.75;;;4.18;;
66727;SDS011;53641;44.274;19.890;2022-08-19T04:40:56;10.10;;;4.20;;
66727;SDS011;53641;44.274;19.890;2022-08-19T04:43:42;11.05;;;3.90;;
66727;SDS011;53641;44.274;19.890;2022-08-19T04:46:13;9.93;;;3.50;;
66727;SDS011;53641;44.274;19.890;2022-08-19T04:48:39;7.70;;;3.78;;
66727;SDS011;53641;44.274;19.890;2022-08-19T04:51:06;10.85;;;3.85;;
66727;SDS011;53641;44.274;19.890;2022-08-19T04:53:38;7.00;;;3.65;;
66727;SDS011;53641;44.274;19.890;2022-08-19T04:56:13;11.88;;;3.90;;
66727;SDS011;53641;44.274;19.890;2022-08-19T04:58:42;7.97;;;3.90;;
66727;SDS011;53641;44.274;19.890;2022-08-19T05:01:23;9.82;;;3.75;;
66727;SDS011;53641;44.274;19.890;2022-08-19T05:03:50;7.65;;;3.55;;
66727;SDS011;53641;44.274;19.890;2022-08-19T05:06:18;9.35;;;3.90;;
66727;SDS011;53641;44.274;19.890;2022-08-19T05:08:45;8.13;;;4.45;;
66727;SDS011;53641;44.274;19.890;2022-08-19T05:11:13;11.63;;;4.35;;
66727;SDS011;53641;44.274;19.890;2022-08-19T05:13:40;10.85;;;4.20;;
66727;SDS011;53641;44.274;19.890;2022-08-19T05:16:08;10.98;;;4.57;;
66727;SDS011;53641;44.274;19.890;2022-08-19T05:18:36;12.50;;;3.88;;
66727;SDS011;53641;44.274;19.890;2022-08-19T05:21:21;6.80;;;3.90;;
66727;SDS011;53641;44.274;19.890;2022-08-19T05:24:07;8.82;;;4.30;;
66727;SDS011;53641;44.274;19.890;2022-08-19T05:26:35;6.85;;;3.50;;
66727;SDS011;53641;44.274;19.890;2022-08-19T05:29:01;8.43;;;4.43;;
66727;SDS011;53641;44.274;19.890;2022-08-19T05:31:27;14.95;;;4.47;;
66727;SDS011;53641;44.274;19.890;2022-08-19T05:33:53;8.73;;;4.18;;
66727;SDS011;53641;44.274;19.890;2022-08-19T05:36:19;10.50;;;4.60;;
66727;SDS011;53641;44.274;19.890;2022-08-19T05:38:45;8.98;;;4.40;;
66727;SDS011;53641;44.274;19.890;2022-08-19T05:41:13;17.17;;;4.97;;
66727;SDS011;53641;44.274;19.890;2022-08-19T05:43:40;10.48;;;4.25;;
66727;SDS011;53641;44.274;19.890;2022-08-19T05:46:06;12.00;;;4.43;;
66727;SDS011;53641;44.274;19.890;2022-08-19T05:48:34;12.32;;;4.32;;
66727;SDS011;53641;44.274;19.890;2022-08-19T05:51:04;12.48;;;4.95;;
66727;SDS011;53641;44.274;19.890;2022-08-19T05:53:31;7.45;;;4.25;;
66727;SDS011;53641;44.274;19.890;2022-08-19T05:56:02;10.95;;;5.15;;
66727;SDS011;53641;44.274;19.890;2022-08-19T05:58:28;9.23;;;3.80;;
66727;SDS011;53641;44.274;19.890;2022-08-19T06:00:54;10.05;;;4.65;;
66727;SDS011;53641;44.274;19.890;2022-08-19T06:03:20;10.27;;;4.38;;
66727;SDS011;53641;44.274;19.890;2022-08-19T06:05:46;6.70;;;4.07;;
66727;SDS011;53641;44.274;19.890;2022-08-19T06:08:11;10.27;;;3.80;;
66727;SDS011;53641;44.274;19.890;2022-08-19T06:10:37;6.70;;;4.05;;
66727;SDS011;53641;44.274;19.890;2022-08-19T06:13:03;10.85;;;3.70;;
66727;SDS011;53641;44.274;19.890;2022-08-19T06:15:30;8.57;;;4.28;;
66727;SDS011;53641;44.274;19.890;2022-08-19T06:17:56;8.93;;;4.05;;
66727;SDS011;53641;44.274;19.890;2022-08-19T06:20:22;11.60;;;3.80;;
66727;SDS011;53641;44.274;19.890;2022-08-19T06:22:48;12.98;;;4.47;;
66727;SDS011;53641;44.274;19.890;2022-08-19T06:25:18;6.75;;;4.28;;
66727;SDS011;53641;44.274;19.890;2022-08-19T06:27:43;8.43;;;4.05;;
66727;SDS011;53641;44.274;19.890;2022-08-19T06:30:10;10.38;;;3.63;;
66727;SDS011;53641;44.274;19.890;2022-08-19T06:32:37;12.18;;;3.85;;
66727;SDS011;53641;44.274;19.890;2022-08-19T06:35:03;32.28;;;6.15;;
66727;SDS011;53641;44.274;19.890;2022-08-19T06:37:29;25.48;;;7.50;;
66727;SDS011;53641;44.274;19.890;2022-08-19T06:39:55;25.42;;;6.85;;
66727;SDS011;53641;44.274;19.890;2022-08-19T06:42:21;25.52;;;6.25;;
66727;SDS011;53641;44.274;19.890;2022-08-19T06:44:47;15.60;;;5.30;;
66727;SDS011;53641;44.274;19.890;2022-08-19T06:47:15;17.13;;;5.55;;
66727;SDS011;53641;44.274;19.890;2022-08-19T06:49:42;15.63;;;4.82;;
66727;SDS011;53641;44.274;19.890;2022-08-19T06:52:08;22.65;;;4.88;;
66727;SDS011;53641;44.274;19.890;2022-08-19T06:54:37;12.95;;;5.47;;
66727;SDS011;53641;44.274;19.890;2022-08-19T06:57:02;19.35;;;5.47;;
66727;SDS011;53641;44.274;19.890;2022-08-19T06:59:29;19.23;;;4.75;;
66727;SDS011;53641;44.274;19.890;2022-08-19T07:01:57;15.60;;;4.95;;
66727;SDS011;53641;44.274;19.890;2022-08-19T07:04:28;22.60;;;4.97;;
66727;SDS011;53641;44.274;19.890;2022-08-19T07:07:04;18.05;;;4.80;;
66727;SDS011;53641;44.274;19.890;2022-08-19T07:09:35;14.88;;;5.30;;
66727;SDS011;53641;44.274;19.890;2022-08-19T07:12:03;14.85;;;4.53;;
66727;SDS011;53641;44.274;19.890;2022-08-19T07:14:32;10.88;;;3.70;;
66727;SDS011;53641;44.274;19.890;2022-08-19T07:17:02;13.57;;;5.30;;
66727;SDS011;53641;44.274;19.890;2022-08-19T07:19:29;16.50;;;4.90;;
66727;SDS011;53641;44.274;19.890;2022-08-19T07:21:55;18.27;;;5.28;;
66727;SDS011;53641;44.274;19.890;2022-08-19T07:24:22;10.77;;;4.53;;
66727;SDS011;53641;44.274;19.890;2022-08-19T07:26:50;10.00;;;4.43;;
66727;SDS011;53641;44.274;19.890;2022-08-19T07:29:18;8.07;;;3.72;;
66727;SDS011;53641;44.274;19.890;2022-08-19T07:31:44;18.08;;;4.95;;
66727;SDS011;53641;44.274;19.890;2022-08-19T07:34:11;19.52;;;5.35;;
66727;SDS011;53641;44.274;19.890;2022-08-19T07:36:39;15.65;;;4.78;;
66727;SDS011;53641;44.274;19.890;2022-08-19T07:39:08;9.57;;;4.22;;
66727;SDS011;53641;44.274;19.890;2022-08-19T07:41:38;16.20;;;4.45;;
66727;SDS011;53641;44.274;19.890;2022-08-19T07:44:04;13.63;;;5.05;;
66727;SDS011;53641;44.274;19.890;2022-08-19T07:46:32;19.25;;;4.63;;
66727;SDS011;53641;44.274;19.890;2022-08-19T07:48:59;11.60;;;5.10;;
66727;SDS011;53641;44.274;19.890;2022-08-19T07:51:25;16.15;;;5.35;;
66727;SDS011;53641;44.274;19.890;2022-08-19T07:53:51;21.15;;;4.88;;
66727;SDS011;53641;44.274;19.890;2022-08-19T07:56:18;19.88;;;4.55;;
66727;SDS011;53641;44.274;19.890;2022-08-19T07:58:45;12.23;;;4.38;;
66727;SDS011;53641;44.274;19.890;2022-08-19T08:01:13;13.32;;;5.18;;
66727;SDS011;53641;44.274;19.890;2022-08-19T08:03:42;16.38;;;5.18;;
66727;SDS011;53641;44.274;19.890;2022-08-19T08:06:28;19.85;;;8.75;;
66727;SDS011;53641;44.274;19.890;2022-08-19T08:09:15;9.88;;;4.30;;
66727;SDS011;53641;44.274;19.890;2022-08-19T08:11:51;8.77;;;3.70;;
66727;SDS011;53641;44.274;19.890;2022-08-19T08:14:21;6.97;;;3.22;;
66727;SDS011;53641;44.274;19.890;2022-08-19T08:16:56;8.20;;;3.72;;
66727;SDS011;53641;44.274;19.890;2022-08-19T08:19:22;8.80;;;3.88;;
66727;SDS011;53641;44.274;19.890;2022-08-19T08:21:51;10.23;;;4.05;;
66727;SDS011;53641;44.274;19.890;2022-08-19T08:24:17;14.13;;;3.70;;
66727;SDS011;53641;44.274;19.890;2022-08-19T08:26:45;16.05;;;3.85;;
66727;SDS011;53641;44.274;19.890;2022-08-19T08:29:11;13.95;;;4.53;;
66727;SDS011;53641;44.274;19.890;2022-08-19T08:31:38;13.30;;;3.80;;
66727;SDS011;53641;44.274;19.890;2022-08-19T08:34:05;11.30;;;4.25;;
66727;SDS011;53641;44.274;19.890;2022-08-19T08:36:31;12.45;;;4.10;;
66727;SDS011;53641;44.274;19.890;2022-08-19T08:39:00;11.73;;;4.43;;
66727;SDS011;53641;44.274;19.890;2022-08-19T08:41:54;10.52;;;4.40;;
66727;SDS011;53641;44.274;19.890;2022-08-19T08:44:20;13.80;;;4.15;;
66727;SDS011;53641;44.274;19.890;2022-08-19T08:46:52;15.02;;;4.18;;
66727;SDS011;53641;44.274;19.890;2022-08-19T08:49:24;11.32;;;4.45;;
66727;SDS011;53641;44.274;19.890;2022-08-19T08:52:04;16.95;;;4.15;;
66727;SDS011;53641;44.274;19.890;2022-08-19T08:54:34;17.17;;;4.72;;
66727;SDS011;53641;44.274;19.890;2022-08-19T08:57:03;13.23;;;4.22;;
66727;SDS011;53641;44.274;19.890;2022-08-19T08:59:33;18.60;;;4.15;;
66727;SDS011;53641;44.274;19.890;2022-08-19T09:02:01;16.90;;;4.50;;
66727;SDS011;53641;44.274;19.890;2022-08-19T09:04:27;15.82;;;4.30;;
66727;SDS011;53641;44.274;19.890;2022-08-19T09:08:11;10.00;;;3.90;;
66727;SDS011;53641;44.274;19.890;2022-08-19T09:09:52;15.38;;;5.18;;
66727;SDS011;53641;44.274;19.890;2022-08-19T09:12:34;15.18;;;4.93;;
66727;SDS011;53641;44.274;19.890;2022-08-19T09:15:09;15.88;;;4.22;;
66727;SDS011;53641;44.274;19.890;2022-08-19T09:17:37;10.30;;;4.10;;
66727;SDS011;53641;44.274;19.890;2022-08-19T09:20:18;19.83;;;5.20;;
66727;SDS011;53641;44.274;19.890;2022-08-19T09:22:46;13.90;;;4.10;;
66727;SDS011;53641;44.274;19.890;2022-08-19T09:25:15;11.98;;;4.10;;
66727;SDS011;53641;44.274;19.890;2022-08-19T09:27:43;15.45;;;4.45;;
66727;SDS011;53641;44.274;19.890;2022-08-19T09:30:11;16.08;;;4.20;;
66727;SDS011;53641;44.274;19.890;2022-08-19T09:32:39;7.38;;;3.58;;
66727;SDS011;53641;44.274;19.890;2022-08-19T09:35:07;13.55;;;3.72;;
66727;SDS011;53641;44.274;19.890;2022-08-19T09:37:33;11.68;;;3.92;;
66727;SDS011;53641;44.274;19.890;2022-08-19T09:39:59;13.23;;;4.40;;
66727;SDS011;53641;44.274;19.890;2022-08-19T09:42:25;16.80;;;4.50;;
66727;SDS011;53641;44.274;19.890;2022-08-19T09:44:51;14.77;;;4.95;;
66727;SDS011;53641;44.274;19.890;2022-08-19T09:47:16;13.40;;;4.63;;
66727;SDS011;53641;44.274;19.890;2022-08-19T09:49:42;12.52;;;3.97;;
66727;SDS011;53641;44.274;19.890;2022-08-19T09:52:09;10.10;;;3.53;;
66727;SDS011;53641;44.274;19.890;2022-08-19T09:54:36;9.82;;;5.28;;
66727;SDS011;53641;44.274;19.890;2022-08-19T09:57:03;9.77;;;3.47;;
66727;SDS011;53641;44.274;19.890;2022-08-19T09:59:29;11.10;;;3.85;;
66727;SDS011;53641;44.274;19.890;2022-08-19T10:01:54;13.52;;;5.05;;
66727;SDS011;53641;44.274;19.890;2022-08-19T10:04:21;11.90;;;4.53;;
66727;SDS011;53641;44.274;19.890;2022-08-19T10:06:47;12.75;;;3.67;;
66727;SDS011;53641;44.274;19.890;2022-08-19T10:09:15;8.73;;;3.42;;
66727;SDS011;53641;44.274;19.890;2022-08-19T10:11:43;23.30;;;3.95;;
66727;SDS011;53641;44.274;19.890;2022-08-19T10:14:14;10.18;;;4.00;;
66727;SDS011;53641;44.274;19.890;2022-08-19T10:16:41;11.25;;;3.33;;
66727;SDS011;53641;44.274;19.890;2022-08-19T10:19:08;12.45;;;3.50;;
66727;SDS011;53641;44.274;19.890;2022-08-19T10:21:34;16.48;;;3.25;;
66727;SDS011;53641;44.274;19.890;2022-08-19T10:24:02;20.63;;;4.63;;
66727;SDS011;53641;44.274;19.890;2022-08-19T10:26:33;21.63;;;5.85;;
66727;SDS011;53641;44.274;19.890;2022-08-19T10:29:01;12.23;;;4.13;;
66727;SDS011;53641;44.274;19.890;2022-08-19T10:31:28;12.68;;;4.10;;
66727;SDS011;53641;44.274;19.890;2022-08-19T10:33:55;12.07;;;3.78;;
66727;SDS011;53641;44.274;19.890;2022-08-19T10:36:30;13.93;;;3.67;;
66727;SDS011;53641;44.274;19.890;2022-08-19T10:38:59;11.70;;;4.00;;
66727;SDS011;53641;44.274;19.890;2022-08-19T10:41:28;15.52;;;4.85;;
66727;SDS011;53641;44.274;19.890;2022-08-19T10:43:57;8.30;;;4.00;;
66727;SDS011;53641;44.274;19.890;2022-08-19T10:48:52;15.48;;;3.55;;
66727;SDS011;53641;44.274;19.890;2022-08-19T10:51:19;10.80;;;3.78;;
66727;SDS011;53641;44.274;19.890;2022-08-19T10:54:05;22.65;;;4.68;;
66727;SDS011;53641;44.274;19.890;2022-08-19T10:56:32;9.27;;;3.25;;
66727;SDS011;53641;44.274;19.890;2022-08-19T10:59:19;12.60;;;3.90;;
66727;SDS011;53641;44.274;19.890;2022-08-19T11:01:48;11.25;;;3.33;;
66727;SDS011;53641;44.274;19.890;2022-08-19T11:04:14;17.77;;;3.80;;
66727;SDS011;53641;44.274;19.890;2022-08-19T11:06:43;15.52;;;3.40;;
66727;SDS011;53641;44.274;19.890;2022-08-19T11:09:13;17.33;;;4.93;;
66727;SDS011;53641;44.274;19.890;2022-08-19T11:11:40;16.52;;;3.67;;
66727;SDS011;53641;44.274;19.890;2022-08-19T11:14:11;13.60;;;3.58;;
66727;SDS011;53641;44.274;19.890;2022-08-19T11:16:39;22.40;;;4.63;;
66727;SDS011;53641;44.274;19.890;2022-08-19T11:19:05;16.58;;;3.83;;
66727;SDS011;53641;44.274;19.890;2022-08-19T11:21:34;19.77;;;4.22;;
66727;SDS011;53641;44.274;19.890;2022-08-19T11:24:04;14.23;;;3.80;;
66727;SDS011;53641;44.274;19.890;2022-08-19T11:28:58;14.32;;;4.32;;
66727;SDS011;53641;44.274;19.890;2022-08-19T11:31:25;11.15;;;4.22;;
66727;SDS011;53641;44.274;19.890;2022-08-19T11:33:53;15.25;;;4.63;;
66727;SDS011;53641;44.274;19.890;2022-08-19T11:36:21;19.73;;;4.15;;
66727;SDS011;53641;44.274;19.890;2022-08-19T11:38:48;17.35;;;3.72;;
66727;SDS011;53641;44.274;19.890;2022-08-19T11:41:16;19.13;;;4.32;;
66727;SDS011;53641;44.274;19.890;2022-08-19T11:43:43;12.75;;;3.63;;
66727;SDS011;53641;44.274;19.890;2022-08-19T11:46:09;26.02;;;4.45;;
66727;SDS011;53641;44.274;19.890;2022-08-19T11:48:39;19.67;;;4.38;;
66727;SDS011;53641;44.274;19.890;2022-08-19T11:51:08;14.65;;;3.45;;
66727;SDS011;53641;44.274;19.890;2022-08-19T11:53:37;16.15;;;4.20;;
66727;SDS011;53641;44.274;19.890;2022-08-19T11:56:04;19.67;;;4.88;;
66727;SDS011;53641;44.274;19.890;2022-08-19T11:58:31;20.67;;;4.63;;
66727;SDS011;53641;44.274;19.890;2022-08-19T12:00:59;25.63;;;4.28;;
66727;SDS011;53641;44.274;19.890;2022-08-19T12:03:25;11.95;;;3.47;;
66727;SDS011;53641;44.274;19.890;2022-08-19T12:05:51;19.02;;;3.72;;
66727;SDS011;53641;44.274;19.890;2022-08-19T12:08:17;15.80;;;3.65;;
66727;SDS011;53641;44.274;19.890;2022-08-19T12:10:43;19.30;;;4.63;;
66727;SDS011;53641;44.274;19.890;2022-08-19T12:13:10;18.92;;;3.90;;
66727;SDS011;53641;44.274;19.890;2022-08-19T12:15:41;17.58;;;4.03;;
66727;SDS011;53641;44.274;19.890;2022-08-19T12:18:07;12.82;;;3.55;;
66727;SDS011;53641;44.274;19.890;2022-08-19T12:20:38;16.88;;;4.03;;
66727;SDS011;53641;44.274;19.890;2022-08-19T12:23:06;16.52;;;3.92;;
66727;SDS011;53641;44.274;19.890;2022-08-19T12:25:34;15.80;;;5.30;;
66727;SDS011;53641;44.274;19.890;2022-08-19T12:28:01;13.50;;;3.17;;
66727;SDS011;53641;44.274;19.890;2022-08-19T12:30:28;16.00;;;3.75;;
66727;SDS011;53641;44.274;19.890;2022-08-19T12:32:54;15.48;;;3.92;;
66727;SDS011;53641;44.274;19.890;2022-08-19T12:35:19;16.92;;;4.00;;
66727;SDS011;53641;44.274;19.890;2022-08-19T12:37:46;15.05;;;3.53;;
66727;SDS011;53641;44.274;19.890;2022-08-19T12:40:13;12.00;;;3.70;;
66727;SDS011;53641;44.274;19.890;2022-08-19T12:42:40;12.02;;;3.42;;
66727;SDS011;53641;44.274;19.890;2022-08-19T12:45:08;15.55;;;3.60;;
66727;SDS011;53641;44.274;19.890;2022-08-19T12:47:34;16.95;;;4.20;;
66727;SDS011;53641;44.274;19.890;2022-08-19T12:50:00;10.55;;;3.53;;
66727;SDS011;53641;44.274;19.890;2022-08-19T12:52:26;14.82;;;4.07;;
66727;SDS011;53641;44.274;19.890;2022-08-19T12:54:53;36.38;;;4.28;;
66727;SDS011;53641;44.274;19.890;2022-08-19T12:57:21;17.50;;;3.63;;
66727;SDS011;53641;44.274;19.890;2022-08-19T12:59:47;17.50;;;4.00;;
66727;SDS011;53641;44.274;19.890;2022-08-19T13:02:18;27.67;;;4.20;;
66727;SDS011;53641;44.274;19.890;2022-08-19T13:04:44;17.88;;;4.32;;
66727;SDS011;53641;44.274;19.890;2022-08-19T13:07:10;18.75;;;4.25;;
66727;SDS011;53641;44.274;19.890;2022-08-19T13:09:36;23.38;;;4.68;;
66727;SDS011;53641;44.274;19.890;2022-08-19T13:12:02;21.45;;;4.60;;
66727;SDS011;53641;44.274;19.890;2022-08-19T13:14:33;35.28;;;5.03;;
66727;SDS011;53641;44.274;19.890;2022-08-19T13:16:59;21.75;;;5.50;;
66727;SDS011;53641;44.274;19.890;2022-08-19T13:19:25;23.45;;;4.78;;
66727;SDS011;53641;44.274;19.890;2022-08-19T13:21:51;24.23;;;5.10;;
66727;SDS011;53641;44.274;19.890;2022-08-19T13:24:18;28.13;;;4.75;;
66727;SDS011;53641;44.274;19.890;2022-08-19T13:26:44;16.52;;;4.68;;
66727;SDS011;53641;44.274;19.890;2022-08-19T13:29:10;20.83;;;4.65;;
66727;SDS011;53641;44.274;19.890;2022-08-19T13:31:56;22.70;;;4.55;;
66727;SDS011;53641;44.274;19.890;2022-08-19T13:34:41;23.05;;;5.18;;
66727;SDS011;53641;44.274;19.890;2022-08-19T13:37:07;22.48;;;4.97;;
66727;SDS011;53641;44.274;19.890;2022-08-19T13:39:33;22.55;;;5.03;;
66727;SDS011;53641;44.274;19.890;2022-08-19T13:42:00;16.77;;;5.28;;
66727;SDS011;53641;44.274;19.890;2022-08-19T13:44:27;24.75;;;4.78;;
66727;SDS011;53641;44.274;19.890;2022-08-19T13:49:30;23.65;;;5.80;;
66727;SDS011;53641;44.274;19.890;2022-08-19T13:51:57;25.85;;;6.47;;
66727;SDS011;53641;44.274;19.890;2022-08-19T13:54:23;20.00;;;5.10;;
66727;SDS011;53641;44.274;19.890;2022-08-19T13:56:48;27.35;;;6.88;;
66727;SDS011;53641;44.274;19.890;2022-08-19T13:59:14;20.15;;;6.13;;
66727;SDS011;53641;44.274;19.890;2022-08-19T14:01:40;25.45;;;6.05;;
66727;SDS011;53641;44.274;19.890;2022-08-19T14:04:06;35.78;;;6.63;;
66727;SDS011;53641;44.274;19.890;2022-08-19T14:06:33;27.65;;;6.63;;
66727;SDS011;53641;44.274;19.890;2022-08-19T14:08:59;19.77;;;5.30;;
66727;SDS011;53641;44.274;19.890;2022-08-19T14:11:27;30.48;;;7.18;;
66727;SDS011;53641;44.274;19.890;2022-08-19T14:13:53;19.00;;;6.43;;
66727;SDS011;53641;44.274;19.890;2022-08-19T14:16:19;30.60;;;6.15;;
66727;SDS011;53641;44.274;19.890;2022-08-19T14:18:46;21.77;;;5.97;;
66727;SDS011;53641;44.274;19.890;2022-08-19T14:21:16;26.25;;;6.50;;
66727;SDS011;53641;44.274;19.890;2022-08-19T14:23:45;24.88;;;6.95;;
66727;SDS011;53641;44.274;19.890;2022-08-19T14:26:12;19.88;;;7.07;;
66727;SDS011;53641;44.274;19.890;2022-08-19T14:28:40;19.85;;;7.38;;
66727;SDS011;53641;44.274;19.890;2022-08-19T14:31:09;22.15;;;8.02;;
66727;SDS011;53641;44.274;19.890;2022-08-19T14:33:37;27.42;;;7.25;;
66727;SDS011;53641;44.274;19.890;2022-08-19T14:36:03;19.40;;;7.07;;
66727;SDS011;53641;44.274;19.890;2022-08-19T14:38:30;20.75;;;6.63;;